Time;durP1;ratioP1;P1;durP2;ratioP2;P2;SDS_P1;SDS_P2;PMS_P1;PMS_P2;Temp;Humidity;BMP_temperature;BMP_pressure;BME280_temperature;BME280_humidity;BME280_pressure;Samples;Min_cycle;Max_cycle;Signal;HPM_P1;HPM_P2
2023/11/21 00:01:54;;;;;;;20.15;9.10;;;;;;;5.86;100.00;101204.56;5051935;28;20067;-79
2023/11/21 00:04:19;;;;;;;21.65;8.82;;;;;;;5.90;100.00;101206.06;5052048;28;20048;-80
2023/11/21 00:06:46;;;;;;;17.40;8.30;;;;;;;5.95;100.00;101211.91;5051843;28;20029;-80
2023/11/21 00:09:15;;;;;;;20.20;8.25;;;;;;;6.02;100.00;101219.44;5052205;28;20120;-79
2023/11/21 00:11:40;;;;;;;22.35;8.48;;;;;;;6.06;100.00;101221.81;5050327;28;20069;-80
2023/11/21 00:14:06;;;;;;;19.38;8.68;;;;;;;6.08;100.00;101219.91;5052173;28;20035;-79
2023/11/21 00:16:31;;;;;;;15.85;7.93;;;;;;;6.12;100.00;101229.34;5051898;28;20040;-79
2023/11/21 00:18:56;;;;;;;18.73;8.20;;;;;;;6.16;100.00;101229.97;5050230;28;20082;-79
2023/11/21 00:21:22;;;;;;;22.60;8.55;;;;;;;6.21;100.00;101221.72;5051679;28;20032;-80
2023/11/21 00:23:48;;;;;;;14.45;8.10;;;;;;;6.25;100.00;101220.59;5051604;28;20036;-80
2023/11/21 00:26:14;;;;;;;21.10;8.50;;;;;;;6.29;100.00;101222.09;5051668;28;20036;-80
2023/11/21 00:28:39;;;;;;;23.15;8.32;;;;;;;6.31;100.00;101217.53;5051537;28;20033;-81
2023/11/21 00:31:05;;;;;;;21.35;7.82;;;;;;;6.33;100.00;101216.50;5051994;28;20437;-79
2023/11/21 00:33:30;;;;;;;18.90;8.00;;;;;;;6.35;100.00;101216.38;5052063;28;20063;-79
2023/11/21 00:35:56;;;;;;;17.80;7.78;;;;;;;6.38;100.00;101216.19;5051259;28;20312;-79
2023/11/21 00:38:21;;;;;;;19.80;8.00;;;;;;;6.42;100.00;101225.59;5051586;28;20380;-79
2023/11/21 00:40:47;;;;;;;18.42;7.78;;;;;;;6.44;100.00;101218.41;5050094;28;20033;-80
2023/11/21 00:43:12;;;;;;;21.38;8.10;;;;;;;6.45;100.00;101221.88;5051231;28;20366;-79
2023/11/21 00:45:40;;;;;;;15.70;7.60;;;;;;;6.43;100.00;101219.34;5051513;28;20029;-80
2023/11/21 00:48:05;;;;;;;18.50;7.95;;;;;;;6.43;100.00;101216.72;5051704;28;20052;-79
2023/11/21 00:50:30;;;;;;;18.83;7.57;;;;;;;6.46;100.00;101221.78;5051615;28;20461;-79
2023/11/21 00:52:56;;;;;;;19.58;7.90;;;;;;;6.46;100.00;101221.78;5050772;28;20115;-79
2023/11/21 00:55:22;;;;;;;17.08;7.53;;;;;;;6.49;100.00;101226.91;5051305;28;20047;-79
2023/11/21 00:57:47;;;;;;;22.08;7.95;;;;;;;6.52;100.00;101223.19;5050928;28;20406;-80
2023/11/21 01:00:16;;;;;;;20.25;7.95;;;;;;;6.56;100.00;101231.78;5049934;28;20048;-79
2023/11/21 01:02:44;;;;;;;19.70;7.85;;;;;;;6.56;100.00;101235.25;5050839;28;20110;-80
2023/11/21 01:05:10;;;;;;;13.57;7.72;;;;;;;6.57;100.00;101239.59;5051021;28;20041;-79
2023/11/21 01:07:36;;;;;;;20.02;7.43;;;;;;;6.59;100.00;101244.78;5051441;28;20028;-79
2023/11/21 01:10:02;;;;;;;16.85;8.07;;;;;;;6.61;100.00;101248.16;5050983;28;20037;-79
2023/11/21 01:12:28;;;;;;;22.52;7.13;;;;;;;6.60;100.00;101246.44;5051499;28;20091;-79
2023/11/21 01:14:53;;;;;;;21.80;8.07;;;;;;;6.62;100.00;101245.41;5050487;28;20033;-80
2023/11/21 01:17:19;;;;;;;17.70;7.38;;;;;;;6.62;100.00;101255.16;5051305;28;20485;-79
2023/11/21 01:19:44;;;;;;;18.17;7.38;;;;;;;6.61;100.00;101264.03;5050852;28;20031;-80
2023/11/21 01:22:11;;;;;;;22.52;8.60;;;;;;;6.60;100.00;101263.19;5051268;28;20033;-80
2023/11/21 01:24:37;;;;;;;17.67;7.18;;;;;;;6.61;100.00;101270.16;5051118;28;20033;-80
2023/11/21 01:27:04;;;;;;;14.27;6.88;;;;;;;6.63;100.00;101267.44;5050794;28;20243;-79
2023/11/21 01:29:29;;;;;;;26.58;8.02;;;;;;;6.63;100.00;101270.91;5050987;28;20096;-79
2023/11/21 01:31:55;;;;;;;17.17;7.22;;;;;;;6.63;100.00;101270.06;5050647;28;20029;-80
2023/11/21 01:34:20;;;;;;;17.27;7.35;;;;;;;6.65;100.00;101265.53;5050949;28;20179;-79
2023/11/21 01:36:46;;;;;;;23.88;7.88;;;;;;;6.66;100.00;101270.69;5050564;28;20406;-81
2023/11/21 01:39:15;;;;;;;19.17;7.25;;;;;;;6.66;100.00;101278.63;5050649;28;20521;-78
2023/11/21 01:41:40;;;;;;;21.55;8.20;;;;;;;6.67;100.00;101284.75;5051044;28;20037;-81
2023/11/21 01:44:09;;;;;;;16.40;7.00;;;;;;;6.69;100.00;101277.59;5050570;28;20040;-80
2023/11/21 01:46:35;;;;;;;19.58;7.45;;;;;;;6.72;100.00;101282.66;5050728;28;20025;-80
2023/11/21 01:49:00;;;;;;;19.70;8.25;;;;;;;6.75;100.00;101285.09;5050409;28;20033;-79
2023/11/21 01:51:26;;;;;;;25.33;8.05;;;;;;;6.76;100.00;101289.44;5050863;28;20465;-80
2023/11/21 01:53:52;;;;;;;20.98;7.65;;;;;;;6.81;100.00;101297.06;5053665;28;20056;-80
2023/11/21 01:56:18;;;;;;;24.48;7.95;;;;;;;6.82;100.00;101294.31;5054732;28;20029;-80
2023/11/21 01:58:44;;;;;;;18.45;7.55;;;;;;;6.85;100.00;101302.06;5054772;28;20045;-80
2023/11/21 02:01:09;;;;;;;24.33;7.95;;;;;;;6.89;100.00;101295.59;5053856;28;20120;-80
2023/11/21 02:03:35;;;;;;;13.85;7.45;;;;;;;6.91;100.00;101300.75;5055114;28;20032;-80
2023/11/21 02:06:01;;;;;;;23.02;7.95;;;;;;;6.89;100.00;101305.31;5054346;28;20029;-81
2023/11/21 02:08:26;;;;;;;20.42;7.93;;;;;;;6.86;100.00;101301.06;5054648;28;20029;-80
2023/11/21 02:10:52;;;;;;;16.92;7.30;;;;;;;6.85;100.00;101298.53;5054140;28;20036;-81
2023/11/21 02:13:17;;;;;;;20.90;7.07;;;;;;;6.85;100.00;101302.06;5054752;28;20037;-80
2023/11/21 02:15:43;;;;;;;16.20;7.20;;;;;;;6.87;100.00;101304.59;5054018;28;20037;-80
2023/11/21 02:18:11;;;;;;;23.33;8.25;;;;;;;6.88;100.00;101306.28;5053827;28;20783;-81
2023/11/21 02:20:38;;;;;;;16.23;7.18;;;;;;;6.87;100.00;101308.06;5054380;28;20033;-80
2023/11/21 02:23:04;;;;;;;18.75;7.50;;;;;;;6.91;100.00;101315.81;5053674;28;20086;-80
2023/11/21 02:25:32;;;;;;;20.10;7.28;;;;;;;6.92;100.00;101315.69;5052769;28;20036;-81
2023/11/21 02:28:00;;;;;;;20.45;7.45;;;;;;;6.97;100.00;101315.38;5053882;28;20056;-80
2023/11/21 02:30:27;;;;;;;16.63;7.07;;;;;;;6.99;100.00;101316.97;5054023;28;20035;-80
2023/11/21 02:32:53;;;;;;;20.90;7.57;;;;;;;7.03;100.00;101318.47;5053775;28;20462;-81
2023/11/21 02:35:20;;;;;;;17.98;7.43;;;;;;;7.05;100.00;101315.72;5054232;28;20037;-80
2023/11/21 02:37:49;;;;;;;16.00;7.88;;;;;;;7.05;100.00;101319.22;5054154;28;20052;-81
2023/11/21 02:40:20;;;;;;;18.40;7.57;;;;;;;7.07;100.00;101319.94;5052542;28;20389;-83
2023/11/21 02:42:47;;;;;;;16.73;8.33;;;;;;;7.11;100.00;101322.41;5054457;28;20047;-84
2023/11/21 02:45:20;;;;;;;23.58;7.60;;;;;;;7.14;100.00;101317.75;5053785;28;20259;-86
2023/11/21 02:47:46;;;;;;;19.02;7.88;;;;;;;7.18;100.00;101315.72;5054367;28;20147;-86
2023/11/21 02:50:12;;;;;;;18.13;7.57;;;;;;;7.20;100.00;101313.81;5053186;28;20071;-89
2023/11/21 02:52:37;;;;;;;15.70;7.35;;;;;;;7.23;100.00;101324.19;5054676;28;20021;-89
2023/11/21 02:55:03;;;;;;;17.17;7.32;;;;;;;7.26;100.00;101320.50;5053984;28;20029;-89
2023/11/21 02:57:28;;;;;;;18.33;7.20;;;;;;;7.26;100.00;101323.16;5055324;28;20057;-88
2023/11/21 02:59:54;;;;;;;19.05;7.72;;;;;;;7.29;100.00;101330.88;5053877;28;20028;-88
2023/11/21 03:02:20;;;;;;;16.50;7.07;;;;;;;7.29;100.00;101331.72;5054099;28;20107;-88
2023/11/21 03:04:48;;;;;;;18.73;7.00;;;;;;;7.32;100.00;101333.31;5052735;28;20187;-89
2023/11/21 03:07:13;;;;;;;16.83;7.35;;;;;;;7.34;100.00;101332.22;5052984;28;20037;-87
2023/11/21 03:09:38;;;;;;;15.07;7.43;;;;;;;7.38;100.00;101335.53;5053770;28;20047;-88
2023/11/21 03:12:04;;;;;;;22.17;7.40;;;;;;;7.37;100.00;101326.72;5052851;28;20172;-81
2023/11/21 03:14:30;;;;;;;16.75;7.65;;;;;;;7.39;100.00;101331.94;5051318;28;20029;-82
2023/11/21 03:16:55;;;;;;;14.98;7.35;;;;;;;7.38;100.00;101331.06;5051454;28;20037;-82
2023/11/21 03:19:20;;;;;;;20.13;7.38;;;;;;;7.39;100.00;101338.06;5051300;28;20039;-82
2023/11/21 03:21:46;;;;;;;19.70;7.88;;;;;;;7.38;100.00;101333.72;5053064;28;20037;-82
2023/11/21 03:24:12;;;;;;;12.48;6.78;;;;;;;7.41;100.00;101343.25;5052434;28;20491;-82
2023/11/21 03:26:38;;;;;;;18.52;6.82;;;;;;;7.40;100.00;101336.25;5051420;28;20515;-82
2023/11/21 03:29:04;;;;;;;19.95;7.32;;;;;;;7.38;100.00;101340.84;5051449;28;20063;-83
2023/11/21 03:31:30;;;;;;;17.17;6.78;;;;;;;7.37;100.00;101347.06;5052693;28;20082;-82
2023/11/21 03:33:58;;;;;;;15.40;7.05;;;;;;;7.37;100.00;101350.56;5052529;28;20318;-82
2023/11/21 03:36:25;;;;;;;11.52;6.45;;;;;;;7.36;100.00;101356.81;5052177;28;20056;-82
2023/11/21 03:38:50;;;;;;;14.88;7.53;;;;;;;7.36;100.00;101356.81;5052599;28;20037;-83
2023/11/21 03:41:15;;;;;;;15.55;6.28;;;;;;;7.37;100.00;101358.50;5051716;28;20503;-82
2023/11/21 03:43:41;;;;;;;13.98;7.07;;;;;;;7.37;100.00;101360.31;5052128;28;20120;-82
2023/11/21 03:46:07;;;;;;;13.13;6.75;;;;;;;7.38;100.00;101370.78;5052055;28;20067;-82
2023/11/21 03:48:33;;;;;;;14.70;6.53;;;;;;;7.41;100.00;101372.38;5052461;28;20029;-82
2023/11/21 03:50:58;;;;;;;18.90;6.90;;;;;;;7.41;100.00;101367.94;5051079;28;20028;-83
2023/11/21 03:53:23;;;;;;;15.63;6.50;;;;;;;7.44;100.00;101369.53;5052301;28;20123;-81
2023/11/21 03:55:49;;;;;;;15.60;6.75;;;;;;;7.46;100.00;101385.31;5052283;28;20124;-81
2023/11/21 03:58:15;;;;;;;19.80;7.07;;;;;;;7.49;100.00;101377.97;5050453;28;20470;-81
2023/11/21 04:00:42;;;;;;;17.77;7.45;;;;;;;7.50;100.00;101387.63;5051867;28;20469;-81
2023/11/21 04:03:07;;;;;;;13.93;6.53;;;;;;;7.54;100.00;101386.47;5051753;28;20047;-81
2023/11/21 04:05:32;;;;;;;17.33;7.35;;;;;;;7.56;100.00;101399.59;5052339;28;20479;-82
2023/11/21 04:07:58;;;;;;;16.23;6.65;;;;;;;7.58;100.00;101397.69;5052158;28;20179;-82
2023/11/21 04:10:23;;;;;;;13.02;6.68;;;;;;;7.62;100.00;101395.69;5050405;28;20025;-82
2023/11/21 04:12:48;;;;;;;15.82;6.65;;;;;;;7.66;100.00;101394.50;5050700;28;20437;-82
2023/11/21 04:15:14;;;;;;;18.83;7.47;;;;;;;7.68;100.00;101405.88;5033611;28;20040;-82
2023/11/21 04:17:40;;;;;;;13.60;6.43;;;;;;;7.69;100.00;101404.91;5050511;28;20057;-82
2023/11/21 04:20:08;;;;;;;15.68;6.55;;;;;;;7.70;100.00;101401.28;5051670;28;20136;-82
2023/11/21 04:22:36;;;;;;;12.73;6.15;;;;;;;7.75;100.00;101410.63;5050649;28;20326;-81
2023/11/21 04:25:02;;;;;;;14.55;6.47;;;;;;;7.77;100.00;101416.66;5052089;28;20029;-82
2023/11/21 04:27:27;;;;;;;18.63;6.85;;;;;;;7.80;100.00;101430.66;5051478;28;20033;-82
2023/11/21 04:29:52;;;;;;;12.85;6.40;;;;;;;7.81;100.00;101430.53;5051547;28;20330;-82
2023/11/21 04:32:18;;;;;;;15.48;6.40;;;;;;;7.83;100.00;101438.38;5051236;28;20044;-81
2023/11/21 04:34:43;;;;;;;14.30;6.55;;;;;;;7.84;100.00;101430.34;5051480;28;20029;-81
2023/11/21 04:37:10;;;;;;;11.85;6.05;;;;;;;7.88;100.00;101428.31;5049401;28;20037;-83
2023/11/21 04:39:35;;;;;;;15.57;5.20;;;;;;;7.92;100.00;101424.50;5051037;28;20037;-82
2023/11/21 04:42:01;;;;;;;11.52;4.60;;;;;;;7.94;100.00;101433.16;5051145;28;20025;-81
2023/11/21 04:44:26;;;;;;;9.77;4.10;;;;;;;7.94;100.00;101428.75;5051011;28;20102;-81
2023/11/21 04:46:52;;;;;;;7.95;4.00;;;;;;;7.93;100.00;101434.16;5049729;28;20111;-80
2023/11/21 04:49:17;;;;;;;7.85;4.15;;;;;;;7.83;100.00;101447.16;5050860;28;20382;-81
2023/11/21 04:51:43;;;;;;;15.10;4.50;;;;;;;7.70;100.00;101448.97;5049472;28;20337;-81
2023/11/21 04:54:09;;;;;;;6.55;3.28;;;;;;;7.56;100.00;101455.22;5049651;28;20032;-81
2023/11/21 04:56:34;;;;;;;4.10;2.63;;;;;;;7.40;100.00;101452.75;5050543;28;20125;-82
2023/11/21 04:58:59;;;;;;;4.28;2.22;;;;;;;7.29;100.00;101466.72;5051351;28;20041;-81
2023/11/21 05:01:27;;;;;;;4.57;2.20;;;;;;;7.17;100.00;101459.59;5049297;28;20543;-82
2023/11/21 05:03:52;;;;;;;5.20;2.38;;;;;;;7.03;100.00;101460.50;5050667;28;20045;-82
2023/11/21 05:06:18;;;;;;;5.43;2.13;;;;;;;6.91;100.00;101475.38;5049338;28;20393;-82
2023/11/21 05:08:43;;;;;;;4.15;2.10;;;;;;;6.82;100.00;101474.19;5050953;28;20433;-82
2023/11/21 05:11:10;;;;;;;3.85;2.40;;;;;;;6.84;100.00;101480.22;5050485;28;20400;-81
2023/11/21 05:13:35;;;;;;;4.47;2.20;;;;;;;6.92;100.00;101474.44;5050579;28;20112;-82
2023/11/21 05:16:04;;;;;;;5.57;2.92;;;;;;;7.07;100.00;101484.00;5050558;28;20123;-81
2023/11/21 05:18:29;;;;;;;7.32;3.20;;;;;;;7.15;100.00;101482.66;5050529;28;20041;-82
2023/11/21 05:20:55;;;;;;;6.80;3.20;;;;;;;7.17;100.00;101491.38;5050911;28;20472;-82
2023/11/21 05:23:21;;;;;;;4.60;3.38;;;;;;;7.21;100.00;101493.72;5050536;28;20157;-82
2023/11/21 05:25:46;;;;;;;5.75;3.40;;;;;;;7.25;100.00;101502.28;5050773;28;20143;-81
2023/11/21 05:28:12;;;;;;;6.20;3.85;;;;;;;7.31;100.00;101508.97;5052018;28;20037;-81
2023/11/21 05:30:41;;;;;;;8.32;4.45;;;;;;;7.37;100.00;101504.09;5053222;28;20368;-82
2023/11/21 05:33:06;;;;;;;8.25;4.00;;;;;;;7.46;100.00;101505.28;5055147;28;20040;-81
2023/11/21 05:35:32;;;;;;;6.35;4.10;;;;;;;7.58;100.00;101516.88;5054273;28;20037;-81
2023/11/21 05:37:57;;;;;;;9.30;4.70;;;;;;;7.66;100.00;101511.91;5054261;28;20123;-82
2023/11/21 05:40:22;;;;;;;9.35;4.47;;;;;;;7.72;100.00;101505.38;5054573;28;20422;-82
2023/11/21 05:42:48;;;;;;;10.45;4.97;;;;;;;7.81;100.00;101517.09;5053386;28;20036;-82
2023/11/21 05:45:15;;;;;;;8.38;4.85;;;;;;;7.84;100.00;101520.41;5053131;28;20037;-82
2023/11/21 05:47:42;;;;;;;10.63;4.63;;;;;;;7.90;100.00;101524.44;5054573;28;20025;-82
2023/11/21 05:50:12;;;;;;;10.50;4.45;;;;;;;7.93;100.00;101526.88;5054679;28;20024;-82
2023/11/21 05:52:39;;;;;;;13.60;5.05;;;;;;;7.95;100.00;101535.56;5054360;28;20029;-82
2023/11/21 05:55:07;;;;;;;13.40;5.35;;;;;;;7.96;100.00;101534.63;5052966;28;20358;-82
2023/11/21 05:57:33;;;;;;;9.50;5.00;;;;;;;7.97;100.00;101532.81;5054095;28;20160;-82
2023/11/21 05:59:59;;;;;;;7.60;4.72;;;;;;;7.94;100.00;101539.16;5053054;28;20518;-82
2023/11/21 06:02:25;;;;;;;12.68;5.90;;;;;;;7.95;100.00;101548.81;5036265;28;20142;-82
2023/11/21 06:04:51;;;;;;;10.77;4.95;;;;;;;7.95;100.00;101546.16;5054131;28;20033;-82
2023/11/21 06:07:16;;;;;;;12.23;5.10;;;;;;;7.95;100.00;101554.97;5052843;28;20044;-82
2023/11/21 06:09:42;;;;;;;9.88;4.68;;;;;;;7.95;100.00;101554.13;5053830;28;20040;-82
2023/11/21 06:12:07;;;;;;;11.68;4.72;;;;;;;7.94;100.00;101547.13;5054417;28;20041;-82
2023/11/21 06:14:35;;;;;;;7.72;4.65;;;;;;;7.87;100.00;101552.00;5054148;28;20124;-82
2023/11/21 06:17:00;;;;;;;6.82;3.72;;;;;;;7.79;100.00;101558.75;5036331;28;20044;-82
2023/11/21 06:19:26;;;;;;;5.82;3.90;;;;;;;7.69;100.00;101569.97;5052637;28;20041;-81
2023/11/21 06:21:51;;;;;;;6.05;3.88;;;;;;;7.60;100.00;101567.94;5053677;28;20457;-83
2023/11/21 06:24:16;;;;;;;8.38;4.00;;;;;;;7.51;100.00;101574.69;5053649;28;20041;-82
2023/11/21 06:26:44;;;;;;;7.53;3.08;;;;;;;7.47;100.00;101580.31;5053667;28;20127;-82
2023/11/21 06:29:09;;;;;;;11.95;4.18;;;;;;;7.46;100.00;101578.59;5053615;28;20045;-83
2023/11/21 06:31:34;;;;;;;8.63;3.63;;;;;;;7.44;100.00;101581.34;5052012;28;20039;-82
2023/11/21 06:34:00;;;;;;;8.73;3.95;;;;;;;7.39;100.00;101586.09;5053538;28;20166;-83
2023/11/21 06:36:26;;;;;;;6.35;3.40;;;;;;;7.32;100.00;101592.75;5053614;28;20074;-82
2023/11/21 06:38:52;;;;;;;9.52;4.65;;;;;;;7.25;100.00;101597.56;5052224;28;20029;-82
2023/11/21 06:41:17;;;;;;;7.90;3.33;;;;;;;7.24;100.00;101595.91;5053290;28;20025;-80
2023/11/21 06:43:46;;;;;;;15.80;3.75;;;;;;;7.22;100.00;101601.25;5053330;28;20083;-79
2023/11/21 06:46:14;;;;;;;8.70;4.00;;;;;;;7.22;100.00;101609.19;5053080;28;20477;-83
2023/11/21 06:48:42;;;;;;;11.43;4.75;;;;;;;7.19;100.00;101603.25;5051550;28;20037;-80
2023/11/21 06:51:08;;;;;;;12.32;4.82;;;;;;;7.20;100.00;101608.47;5052966;28;20032;-81
2023/11/21 06:53:33;;;;;;;13.30;4.60;;;;;;;7.17;100.00;101611.31;5052690;28;20120;-83
2023/11/21 06:55:59;;;;;;;14.60;4.85;;;;;;;7.16;100.00;101619.34;5052323;28;20040;-81
2023/11/21 06:58:24;;;;;;;14.75;4.78;;;;;;;7.14;100.00;101623.91;5052902;28;20133;-79
2023/11/21 07:00:50;;;;;;;18.67;4.63;;;;;;;7.14;100.00;101631.84;5052998;28;20405;-80
2023/11/21 07:03:15;;;;;;;16.65;4.95;;;;;;;7.21;100.00;101627.81;5052694;28;20446;-82
2023/11/21 07:05:41;;;;;;;27.55;5.63;;;;;;;7.29;100.00;101632.66;5052171;28;20120;-85
2023/11/21 07:08:07;;;;;;;17.75;5.15;;;;;;;7.38;100.00;101634.69;5052460;28;20028;-84
2023/11/21 07:10:33;;;;;;;29.27;5.88;;;;;;;7.52;100.00;101641.75;5052316;28;20037;-84
2023/11/21 07:12:58;;;;;;;22.02;4.40;;;;;;;7.62;100.00;101653.44;5051928;28;20183;-83
2023/11/21 07:15:25;;;;;;;15.68;4.53;;;;;;;7.67;100.00;101653.16;5050881;28;20041;-83
2023/11/21 07:17:51;;;;;;;22.83;4.57;;;;;;;7.73;100.00;101661.56;5052347;28;20098;-83
2023/11/21 07:20:17;;;;;;;17.48;4.88;;;;;;;7.77;100.00;101672.78;5050879;28;20044;-84
2023/11/21 07:22:42;;;;;;;26.92;5.93;;;;;;;7.81;100.00;101670.78;5052106;28;20025;-86
2023/11/21 07:25:09;;;;;;;22.40;5.65;;;;;;;7.85;100.00;101677.56;5052554;28;20037;-86
2023/11/21 07:27:35;;;;;;;21.73;5.50;;;;;;;7.89;100.00;101679.91;5052109;28;20104;-83
2023/11/21 07:30:04;;;;;;;26.42;5.80;;;;;;;7.94;100.00;101692.88;5052037;28;20025;-84
2023/11/21 07:32:30;;;;;;;27.77;5.50;;;;;;;7.98;100.00;101689.06;5050524;28;20442;-84
2023/11/21 07:34:57;;;;;;;25.42;5.75;;;;;;;8.02;100.00;101692.38;5050447;28;20123;-84
2023/11/21 07:37:22;;;;;;;20.83;4.85;;;;;;;8.04;100.00;101690.47;5050658;28;20139;-84
2023/11/21 07:39:48;;;;;;;28.98;5.57;;;;;;;8.08;100.00;101689.31;5051996;28;20080;-85
2023/11/21 07:42:13;;;;;;;20.17;5.40;;;;;;;8.08;100.00;101687.50;5051957;28;20045;-85
2023/11/21 07:44:39;;;;;;;18.33;4.50;;;;;;;8.11;100.00;101691.78;5051768;28;20045;-87
2023/11/21 07:47:04;;;;;;;24.48;4.93;;;;;;;8.13;100.00;101697.81;5050270;28;20073;-87
2023/11/21 07:49:30;;;;;;;26.30;4.90;;;;;;;8.15;100.00;101709.19;5050663;28;20032;-85
2023/11/21 07:51:56;;;;;;;19.02;4.55;;;;;;;8.18;100.00;101710.75;5051990;28;20050;-87
2023/11/21 07:54:24;;;;;;;16.85;5.03;;;;;;;8.20;100.00;101717.66;5050749;28;20041;-87
2023/11/21 07:56:49;;;;;;;21.40;4.47;;;;;;;8.24;100.00;101728.91;5051873;28;20129;-86
2023/11/21 07:59:15;;;;;;;18.58;4.05;;;;;;;8.26;100.00;101727.00;5034674;28;20453;-85
2023/11/21 08:01:43;;;;;;;16.83;4.70;;;;;;;8.31;100.00;101730.19;5051825;28;20434;-85
2023/11/21 08:04:11;;;;;;;21.20;3.97;;;;;;;8.36;100.00;101735.19;5051920;28;20100;-86
2023/11/21 08:06:37;;;;;;;21.45;4.53;;;;;;;8.37;100.00;101734.25;5051857;28;20115;-85
2023/11/21 08:09:02;;;;;;;20.02;4.70;;;;;;;8.42;100.00;101745.38;5050329;28;20108;-84
2023/11/21 08:11:31;;;;;;;13.65;3.67;;;;;;;8.44;100.00;101746.19;5050506;28;20106;-85
2023/11/21 08:13:59;;;;;;;15.95;3.72;;;;;;;8.47;100.00;101749.47;5051973;28;20113;-84
2023/11/21 08:16:27;;;;;;;15.45;4.57;;;;;;;8.48;100.00;101747.69;5050095;28;20396;-85
2023/11/21 08:18:54;;;;;;;17.38;4.20;;;;;;;8.50;100.00;101752.88;5033528;28;20041;-86
2023/11/21 08:21:24;;;;;;;22.23;4.32;;;;;;;8.58;100.00;101753.19;5050355;28;20033;-85
2023/11/21 08:24:04;;;;;;;;;;;;;;;;;;;;;
2023/11/21 08:26:30;;;;;;;22.52;4.68;;;;;;;8.63;100.00;101756.41;5048434;28;20045;-85
2023/11/21 08:28:56;;;;;;;17.65;4.57;;;;;;;8.63;100.00;101751.94;5052089;28;20112;-83
2023/11/21 08:31:26;;;;;;;15.55;4.22;;;;;;;8.67;100.00;101754.38;5049933;28;20132;-84
2023/11/21 08:33:54;;;;;;;12.65;3.85;;;;;;;8.69;100.00;101753.31;5049456;28;20468;-85
2023/11/21 08:36:22;;;;;;;19.92;4.68;;;;;;;8.69;100.00;101757.75;5049722;28;20067;-84
2023/11/21 08:38:48;;;;;;;13.75;4.25;;;;;;;8.69;100.00;101749.81;5051657;28;20036;-84
2023/11/21 08:41:14;;;;;;;14.30;3.88;;;;;;;8.71;100.00;101746.09;5050263;28;20033;-85
2023/11/21 08:43:40;;;;;;;19.58;5.40;;;;;;;8.73;100.00;101754.81;5051038;28;20037;-85
2023/11/21 08:46:08;;;;;;;13.13;4.00;;;;;;;8.79;100.00;101759.72;5050924;28;20115;-83
2023/11/21 08:48:35;;;;;;;18.50;5.10;;;;;;;8.81;100.00;101762.25;5051369;28;20033;-84
2023/11/21 08:51:04;;;;;;;10.50;3.58;;;;;;;8.81;100.00;101764.91;5049942;28;20068;-84
2023/11/21 08:53:30;;;;;;;22.23;4.40;;;;;;;8.82;100.00;101769.25;5049698;28;20465;-85
2023/11/21 08:55:56;;;;;;;16.02;4.20;;;;;;;8.81;100.00;101772.88;5033188;28;20135;-85
2023/11/21 08:58:22;;;;;;;13.90;4.50;;;;;;;8.85;100.00;101771.69;5049324;28;20132;-85
2023/11/21 09:00:47;;;;;;;23.63;4.53;;;;;;;8.88;100.00;101786.56;5033257;28;20430;-83
2023/11/21 09:03:13;;;;;;;14.32;4.85;;;;;;;8.90;100.00;101789.97;5050349;28;20189;-84
2023/11/21 09:05:39;;;;;;;13.60;4.70;;;;;;;8.90;100.00;101796.13;5050388;28;20102;-85
2023/11/21 09:08:06;;;;;;;13.77;4.30;;;;;;;8.92;100.00;101801.31;5050504;28;20044;-85
2023/11/21 09:10:41;;;;;;;17.45;5.05;;;;;;;8.93;100.00;101801.22;5032519;28;20427;-84
2023/11/21 09:13:10;;;;;;;8.48;4.45;;;;;;;8.96;100.00;101795.69;5033215;28;20465;-81
2023/11/21 09:15:35;;;;;;;11.13;4.47;;;;;;;9.01;100.00;101803.34;5050055;28;20037;-84
2023/11/21 09:18:01;;;;;;;13.48;4.75;;;;;;;9.09;100.00;101801.03;5050717;28;20356;-82
2023/11/21 09:20:27;;;;;;;11.73;5.20;;;;;;;9.12;100.00;101811.44;5049563;28;20393;-82
2023/11/21 09:22:54;;;;;;;11.55;4.88;;;;;;;9.18;100.00;101818.09;5049867;28;20108;-84
2023/11/21 09:25:20;;;;;;;10.55;4.78;;;;;;;9.24;100.00;101819.50;5049194;28;20063;-85
2023/11/21 09:27:45;;;;;;;9.60;4.97;;;;;;;9.23;100.00;101823.13;5049307;28;20445;-84
2023/11/21 09:30:14;;;;;;;10.75;4.65;;;;;;;9.25;100.00;101831.81;5049498;28;20040;-83
2023/11/21 09:32:40;;;;;;;7.40;4.38;;;;;;;9.25;100.00;101834.47;5033357;28;20151;-82
2023/11/21 09:35:08;;;;;;;10.70;4.90;;;;;;;9.28;100.00;101839.56;5050441;28;20029;-84
2023/11/21 09:37:33;;;;;;;12.75;5.20;;;;;;;9.27;100.00;101852.00;5050676;28;20040;-83
2023/11/21 09:39:59;;;;;;;8.05;4.75;;;;;;;9.26;100.00;101855.63;5050224;28;20105;-86
2023/11/21 09:42:55;;;;;;;10.63;5.22;;;;;;;9.30;100.00;101869.50;5050144;28;20440;-82
2023/11/21 09:45:26;;;;;;;12.15;5.13;;;;;;;9.27;100.00;101880.34;5041563;28;20040;-82
2023/11/21 09:47:55;;;;;;;13.00;5.10;;;;;;;9.31;100.00;101880.03;5050393;28;20299;-82
2023/11/21 09:50:22;;;;;;;11.80;5.47;;;;;;;9.34;100.00;101885.16;5048380;28;20120;-83
2023/11/21 09:53:15;;;;;;;10.55;5.90;;;;;;;9.42;100.00;101883.75;5048304;28;20119;-82
2023/11/21 09:55:43;;;;;;;10.77;5.40;;;;;;;9.41;100.00;101896.19;5050387;28;20035;-82
2023/11/21 09:58:13;;;;;;;8.70;5.20;;;;;;;9.41;100.00;101901.50;5050021;28;20134;-82
2023/11/21 10:00:43;;;;;;;11.45;6.55;;;;;;;9.39;100.00;101895.47;5048806;28;20128;-82
2023/11/21 10:03:10;;;;;;;8.73;5.13;;;;;;;9.36;100.00;101906.31;5050372;28;20060;-81
2023/11/21 10:05:36;;;;;;;7.72;5.05;;;;;;;9.31;100.00;101909.25;5050239;28;20275;-80
2023/11/21 10:08:04;;;;;;;8.27;5.15;;;;;;;9.20;100.00;101909.16;5048870;28;20044;-82
2023/11/21 10:10:32;;;;;;;8.00;4.93;;;;;;;9.18;100.00;101908.38;5032191;28;20090;-81
2023/11/21 10:13:03;;;;;;;9.13;4.50;;;;;;;9.15;100.00;101919.22;5050407;28;20526;-84
2023/11/21 10:15:29;;;;;;;7.03;4.05;;;;;;;9.11;100.00;101917.75;5052533;28;20037;-83
2023/11/21 10:18:00;;;;;;;8.15;4.35;;;;;;;9.05;100.00;101924.31;5053993;28;20436;-84
2023/11/21 10:20:26;;;;;;;6.22;3.65;;;;;;;9.04;100.00;101935.03;5052423;28;20029;-84
2023/11/21 10:22:52;;;;;;;7.88;4.00;;;;;;;9.00;100.00;101934.38;5052247;28;20090;-82
2023/11/21 10:25:20;;;;;;;4.82;3.67;;;;;;;9.02;100.00;101942.22;5054053;28;20044;-82
2023/11/21 10:27:50;;;;;;;6.75;4.35;;;;;;;9.03;100.00;101934.16;5053480;28;20033;-85
2023/11/21 10:30:16;;;;;;;10.82;4.30;;;;;;;9.02;100.00;101937.78;5053212;28;20306;-83
2023/11/21 10:32:43;;;;;;;7.57;4.18;;;;;;;9.05;100.00;101950.84;5053603;28;20047;-83
2023/11/21 10:35:11;;;;;;;7.65;3.97;;;;;;;9.04;100.00;101948.31;5052147;28;20031;-82
2023/11/21 10:37:40;;;;;;;8.45;4.00;;;;;;;9.06;100.00;101951.69;5053497;28;20035;-85
2023/11/21 10:40:12;;;;;;;7.05;3.92;;;;;;;9.07;100.00;101953.41;5035203;28;20106;-85
2023/11/21 10:42:41;;;;;;;5.80;3.85;;;;;;;9.09;100.00;101951.50;5053249;28;20025;-83
2023/11/21 10:45:13;;;;;;;5.45;3.60;;;;;;;9.06;100.00;101957.00;5051358;28;20033;-84
2023/11/21 10:47:43;;;;;;;6.78;3.50;;;;;;;9.08;100.00;101961.28;5053505;28;20411;-83
2023/11/21 10:50:10;;;;;;;5.72;3.60;;;;;;;9.11;100.00;101962.88;5053441;28;20033;-85
2023/11/21 10:52:39;;;;;;;6.57;3.40;;;;;;;9.16;100.00;101966.91;5051739;28;20429;-85
2023/11/21 10:55:17;;;;;;;5.13;3.75;;;;;;;9.26;100.00;101968.97;5051642;28;20037;-83
2023/11/21 10:57:48;;;;;;;6.22;3.70;;;;;;;9.24;100.00;101963.75;5051393;28;20476;-84
2023/11/21 11:00:15;;;;;;;10.48;4.05;;;;;;;9.29;100.00;101966.09;5053125;28;20036;-85
2023/11/21 11:02:41;;;;;;;6.50;3.97;;;;;;;9.33;100.00;101964.91;5053025;28;20092;-86
2023/11/21 11:05:11;;;;;;;5.72;3.78;;;;;;;9.36;100.00;101967.41;5052801;28;20112;-85
2023/11/21 11:07:40;;;;;;;10.23;4.15;;;;;;;9.39;100.00;101961.00;5035416;28;20036;-85
2023/11/21 11:10:08;;;;;;;7.28;3.55;;;;;;;9.43;100.00;101971.31;5052514;28;20128;-85
2023/11/21 11:12:35;;;;;;;9.55;4.32;;;;;;;9.44;100.00;101966.88;5051442;28;20033;-85
2023/11/21 11:15:03;;;;;;;9.38;4.57;;;;;;;9.46;100.00;101967.59;5052805;28;20402;-85
2023/11/21 11:17:28;;;;;;;10.50;5.15;;;;;;;9.50;100.00;101969.94;5053031;28;20056;-85